createdAt,value
2022-12-11T00:02:04.462Z,112.53
2022-12-11T00:05:28.461Z,114.83
2022-12-11T00:08:54.961Z,104.33
2022-12-11T00:12:17.945Z,99.80
2022-12-11T00:15:40.870Z,88.07
2022-12-11T00:19:04.118Z,85.80
2022-12-11T00:22:27.094Z,72.90
2022-12-11T00:25:51.420Z,72.70
2022-12-11T00:29:15.265Z,64.30
2022-12-11T00:32:38.209Z,63.00
2022-12-11T00:36:01.523Z,60.77
2022-12-11T00:39:24.541Z,57.60
2022-12-11T00:42:48.866Z,57.43
2022-12-11T00:46:12.357Z,53.17
2022-12-11T00:49:35.325Z,62.00
2022-12-11T00:52:58.291Z,52.87
2022-12-11T00:56:22.960Z,47.37
2022-12-11T00:59:47.535Z,42.30
2022-12-11T01:03:12.082Z,52.67
2022-12-11T01:06:35.166Z,55.90
2022-12-11T01:10:15.996Z,52.00
2022-12-11T01:13:39.866Z,52.03
2022-12-11T01:17:04.414Z,50.50
2022-12-11T01:20:28.762Z,54.73
2022-12-11T01:23:51.769Z,56.20
2022-12-11T01:27:14.811Z,48.37
2022-12-11T01:30:38.309Z,65.17
2022-12-11T01:34:02.739Z,82.70
2022-12-11T01:37:25.922Z,69.03
2022-12-11T01:40:49.768Z,71.33
2022-12-11T01:44:46.156Z,74.83
2022-12-11T01:48:12.326Z,55.77
2022-12-11T01:51:40.496Z,48.27
2022-12-11T01:55:04.828Z,53.30
2022-12-11T01:58:30.877Z,41.10
2022-12-11T02:01:59.893Z,44.00
2022-12-11T02:05:22.993Z,55.40
2022-12-11T02:08:47.352Z,47.10
2022-12-11T02:12:17.677Z,51.37
2022-12-11T02:15:48.011Z,53.53
2022-12-11T02:19:27.708Z,56.43
2022-12-11T02:23:08.011Z,68.60
2022-12-11T02:26:48.113Z,66.27
2022-12-11T02:30:14.863Z,70.10
2022-12-11T02:33:42.324Z,59.07
2022-12-11T02:37:10.637Z,68.47
2022-12-11T02:40:37.818Z,75.27
2022-12-11T02:44:03.491Z,75.93
2022-12-11T02:47:30.391Z,78.13
2022-12-11T02:50:59.160Z,76.37
2022-12-11T02:54:26.645Z,72.93
2022-12-11T02:57:53.922Z,74.50
2022-12-11T03:01:17.304Z,69.27
2022-12-11T03:04:42.992Z,64.27
2022-12-11T03:08:06.295Z,75.80
2022-12-11T03:11:29.320Z,60.30
2022-12-11T03:14:52.492Z,83.90
2022-12-11T03:18:20.674Z,60.40
2022-12-11T03:21:53.086Z,68.30
2022-12-11T03:25:21.758Z,66.23
2022-12-11T03:28:49.181Z,68.63
2022-12-11T03:32:15.632Z,78.67
2022-12-11T03:35:41.573Z,77.63
2022-12-11T03:39:11.791Z,67.73
2022-12-11T03:42:36.148Z,58.67
2022-12-11T03:46:00.732Z,70.77
2022-12-11T03:49:27.081Z,72.00
2022-12-11T03:52:51.415Z,62.40
2022-12-11T03:56:27.621Z,60.40
2022-12-11T03:59:51.729Z,74.27
2022-12-11T04:03:15.095Z,75.20
2022-12-11T04:06:38.145Z,70.87
2022-12-11T04:11:01.660Z,69.73
2022-12-11T04:15:41.183Z,54.07
2022-12-11T04:19:25.613Z,58.27
2022-12-11T04:23:08.262Z,63.17
2022-12-11T04:26:31.272Z,50.27
2022-12-11T04:29:55.547Z,55.97
2022-12-11T04:33:18.527Z,60.37
2022-12-11T04:36:41.474Z,55.23
2022-12-11T04:40:05.873Z,57.10
2022-12-11T04:43:29.050Z,53.60
2022-12-11T04:46:53.477Z,50.90
2022-12-11T04:50:17.312Z,50.70
2022-12-11T04:53:40.353Z,57.37
2022-12-11T04:57:03.315Z,58.53
2022-12-11T05:00:27.128Z,58.27
2022-12-11T05:03:51.910Z,57.30
2022-12-11T05:07:14.897Z,52.73
2022-12-11T05:10:37.809Z,53.70
2022-12-11T05:14:00.766Z,57.13
2022-12-11T05:17:24.013Z,61.47
2022-12-11T05:20:56.518Z,56.67
2022-12-11T05:24:19.469Z,62.20
2022-12-11T05:27:42.412Z,57.97
2022-12-11T05:31:08.494Z,55.73
2022-12-11T05:34:31.454Z,55.17
2022-12-11T05:37:55.800Z,49.53
2022-12-11T05:41:20.927Z,50.80
2022-12-11T05:44:43.912Z,52.73
2022-12-11T05:48:07.317Z,55.90
2022-12-11T05:51:33.770Z,48.30
2022-12-11T05:54:58.101Z,52.57
2022-12-11T05:58:21.096Z,46.80
2022-12-11T06:01:44.648Z,49.30
2022-12-11T06:05:08.458Z,51.47
2022-12-11T06:08:32.129Z,54.67
2022-12-11T06:11:56.479Z,53.87
2022-12-11T06:15:19.534Z,55.37
2022-12-11T06:18:44.536Z,56.20
2022-12-11T06:22:07.479Z,67.63
2022-12-11T06:25:30.939Z,57.43
2022-12-11T06:28:55.337Z,51.50
2022-12-11T06:32:18.292Z,47.67
2022-12-11T06:35:42.459Z,47.33
2022-12-11T06:39:05.737Z,52.40
2022-12-11T06:42:30.576Z,49.30
2022-12-11T06:46:00.632Z,48.33
2022-12-11T06:49:26.525Z,49.90
2022-12-11T06:52:51.529Z,54.50
2022-12-11T06:56:16.455Z,52.40
2022-12-11T06:59:39.745Z,47.20
2022-12-11T07:03:04.412Z,51.47
2022-12-11T07:06:31.322Z,43.07
2022-12-11T07:09:54.260Z,49.27
2022-12-11T07:13:17.267Z,46.20
2022-12-11T07:16:40.293Z,48.90
2022-12-11T07:20:05.730Z,49.87
2022-12-11T07:23:29.540Z,51.50
2022-12-11T07:26:52.797Z,45.97
2022-12-11T07:30:15.783Z,48.53
2022-12-11T07:33:38.934Z,47.40
2022-12-11T07:37:03.261Z,50.87
2022-12-11T07:40:26.220Z,46.87
2022-12-11T07:43:49.192Z,49.20
2022-12-11T07:47:12.180Z,45.90
2022-12-11T07:50:39.604Z,46.87
2022-12-11T07:54:06.979Z,48.83
2022-12-11T07:57:30.113Z,48.33
2022-12-11T08:00:53.562Z,50.20
2022-12-11T08:04:18.225Z,50.13
2022-12-11T08:07:41.198Z,47.33
2022-12-11T08:11:06.879Z,44.17
2022-12-11T08:14:37.338Z,47.70
2022-12-11T08:18:00.374Z,44.70
2022-12-11T08:21:25.012Z,46.43
2022-12-11T08:24:48.640Z,42.67
2022-12-11T08:28:13.041Z,42.87
2022-12-11T08:31:36.010Z,44.97
2022-12-11T08:35:02.545Z,41.97
2022-12-11T08:38:27.943Z,50.47
2022-12-11T08:41:51.148Z,38.93
2022-12-11T08:45:15.980Z,36.90
2022-12-11T08:48:40.208Z,39.37
2022-12-11T08:52:04.523Z,40.77
2022-12-11T08:55:27.523Z,37.03
2022-12-11T08:58:50.914Z,36.77
2022-12-11T09:02:15.329Z,38.80
2022-12-11T09:05:40.028Z,35.47
2022-12-11T09:09:03.650Z,33.53
2022-12-11T09:12:27.197Z,29.50
2022-12-11T09:15:50.192Z,31.60
2022-12-11T09:19:16.432Z,28.83
2022-12-11T09:22:39.898Z,31.03
2022-12-11T09:26:05.883Z,26.80
2022-12-11T09:29:28.826Z,31.83
2022-12-11T09:32:53.045Z,30.40
2022-12-11T09:36:17.389Z,30.57
2022-12-11T09:39:40.385Z,31.60
2022-12-11T09:43:14.562Z,32.27
2022-12-11T09:46:38.742Z,27.07
2022-12-11T09:50:08.060Z,27.30
2022-12-11T09:53:36.363Z,29.30
2022-12-11T09:57:08.955Z,28.93
2022-12-11T10:00:39.249Z,25.87
2022-12-11T10:04:16.980Z,22.43
2022-12-11T10:07:47.429Z,26.07
2022-12-11T10:11:33.928Z,24.10
2022-12-11T10:15:15.819Z,26.97
2022-12-11T10:18:39.732Z,28.17
2022-12-11T10:22:03.508Z,26.50
2022-12-11T10:25:30.081Z,27.23
2022-12-11T10:28:54.678Z,24.13
2022-12-11T10:32:25.396Z,25.83
2022-12-11T10:35:51.177Z,29.90
2022-12-11T10:39:17.136Z,33.23
2022-12-11T10:42:45.574Z,29.30
2022-12-11T10:46:17.082Z,26.73
2022-12-11T10:49:44.297Z,29.87
2022-12-11T10:53:07.522Z,30.33
2022-12-11T10:56:32.834Z,27.33
2022-12-11T10:59:57.224Z,24.87
2022-12-11T11:03:24.698Z,36.87
2022-12-11T11:06:48.938Z,25.67
2022-12-11T11:10:18.029Z,27.50
2022-12-11T11:13:40.986Z,27.30
2022-12-11T11:17:04.067Z,31.60
2022-12-11T11:20:31.531Z,24.63
2022-12-11T11:23:55.688Z,31.57
2022-12-11T11:27:29.168Z,25.93
2022-12-11T11:31:04.806Z,26.90
2022-12-11T11:34:30.821Z,33.50
2022-12-11T11:38:06.812Z,28.20
2022-12-11T11:41:35.384Z,25.97
2022-12-11T11:45:05.428Z,24.90
2022-12-11T11:48:38.088Z,28.70
2022-12-11T11:52:09.286Z,27.27
2022-12-11T11:55:42.144Z,25.73
2022-12-11T11:59:12.522Z,29.37
2022-12-11T12:02:35.782Z,22.23
2022-12-11T12:06:10.884Z,24.37
2022-12-11T12:09:48.141Z,25.97
2022-12-11T12:13:48.102Z,25.80
2022-12-11T12:17:18.253Z,22.73
2022-12-11T12:20:49.172Z,22.63
2022-12-11T12:24:25.048Z,21.70
2022-12-11T12:27:57.721Z,22.07
2022-12-11T12:31:39.588Z,27.40
2022-12-11T12:35:14.873Z,27.73
2022-12-11T12:38:51.318Z,22.37
2022-12-11T12:42:23.792Z,26.67
2022-12-11T12:45:54.570Z,28.07
2022-12-11T12:49:31.422Z,24.60
2022-12-11T12:52:56.139Z,26.07
2022-12-11T12:56:19.828Z,28.40
2022-12-11T12:59:42.822Z,28.07
2022-12-11T13:03:15.354Z,34.47
2022-12-11T13:06:42.772Z,29.93
2022-12-11T13:10:09.642Z,30.13
2022-12-11T13:13:37.249Z,31.43
2022-12-11T13:17:23.386Z,26.87
2022-12-11T13:20:51.139Z,29.40
2022-12-11T13:24:24.965Z,30.93
2022-12-11T13:27:49.206Z,30.00
2022-12-11T13:31:45.070Z,29.10
2022-12-11T13:35:14.571Z,27.77
2022-12-11T13:38:38.476Z,28.47
2022-12-11T13:42:06.330Z,30.23
2022-12-11T13:45:34.173Z,30.30
2022-12-11T13:49:00.855Z,31.67
2022-12-11T13:52:27.688Z,30.47
2022-12-11T13:55:57.864Z,28.10
2022-12-11T13:59:29.538Z,28.40
2022-12-11T14:02:54.096Z,24.10
2022-12-11T14:06:19.277Z,28.83
2022-12-11T14:09:46.306Z,32.63
2022-12-11T14:13:18.366Z,24.33
2022-12-11T14:16:42.790Z,26.23
2022-12-11T14:20:08.349Z,25.47
2022-12-11T14:23:32.953Z,20.97
2022-12-11T14:26:56.811Z,27.07
2022-12-11T14:30:24.013Z,22.03
2022-12-11T14:33:51.120Z,26.33
2022-12-11T14:37:19.118Z,22.87
2022-12-11T14:40:47.994Z,26.67
2022-12-11T14:44:16.653Z,23.63
2022-12-11T14:47:43.250Z,25.03
2022-12-11T14:51:13.620Z,22.93
2022-12-11T14:54:42.098Z,23.03
2022-12-11T14:58:08.364Z,24.07
2022-12-11T15:01:33.512Z,23.27
2022-12-11T15:05:18.954Z,29.47
2022-12-11T15:08:43.352Z,26.77
2022-12-11T15:12:12.468Z,25.13
2022-12-11T15:15:45.910Z,24.37
2022-12-11T15:19:19.316Z,25.57
2022-12-11T15:22:45.045Z,32.57
2022-12-11T15:26:09.408Z,25.20
2022-12-11T15:29:36.214Z,24.67
2022-12-11T15:33:22.156Z,33.77
2022-12-11T15:36:45.141Z,27.43
2022-12-11T15:40:09.144Z,26.80
2022-12-11T15:43:38.305Z,28.07
2022-12-11T15:47:01.280Z,26.53
2022-12-11T15:50:26.674Z,27.97
2022-12-11T15:53:49.730Z,23.70
2022-12-11T15:57:17.993Z,27.60
2022-12-11T16:00:42.556Z,24.00
2022-12-11T16:04:05.850Z,25.97
2022-12-11T16:07:28.909Z,25.37
2022-12-11T16:10:57.677Z,24.93
2022-12-11T16:14:20.866Z,23.83
2022-12-11T16:17:45.639Z,24.57
2022-12-11T16:21:08.690Z,21.30
2022-12-11T16:24:32.106Z,23.30
2022-12-11T16:27:57.468Z,21.73
2022-12-11T16:31:20.450Z,23.63
2022-12-11T16:34:45.130Z,21.33
2022-12-11T16:38:09.935Z,24.87
2022-12-11T16:41:33.004Z,22.27
2022-12-11T16:44:55.938Z,24.70
2022-12-11T16:48:19.034Z,20.93
2022-12-11T16:51:43.800Z,23.43
2022-12-11T16:55:07.787Z,21.13
2022-12-11T16:58:30.847Z,24.13
2022-12-11T17:01:53.917Z,24.00
2022-12-11T17:05:16.968Z,24.63
2022-12-11T17:08:42.677Z,23.47
2022-12-11T17:12:06.654Z,21.63
2022-12-11T17:15:29.665Z,25.80
2022-12-11T17:18:53.126Z,18.27
2022-12-11T17:22:16.125Z,20.87
2022-12-11T17:25:42.281Z,24.47
2022-12-11T17:29:05.247Z,22.60
2022-12-11T17:32:28.208Z,20.87
2022-12-11T17:35:51.197Z,24.23
2022-12-11T17:39:14.175Z,23.80
2022-12-11T17:42:38.494Z,20.43
2022-12-11T17:46:01.925Z,26.07
2022-12-11T17:49:25.026Z,25.90
2022-12-11T17:52:48.028Z,23.60
2022-12-11T17:56:11.018Z,23.07
2022-12-11T17:59:35.587Z,21.13
2022-12-11T18:02:58.811Z,23.37
2022-12-11T18:06:23.146Z,22.10
2022-12-11T18:09:46.168Z,20.63
2022-12-11T18:13:09.236Z,18.93
2022-12-11T18:16:37.986Z,26.10
2022-12-11T18:20:01.010Z,25.73
2022-12-11T18:23:24.801Z,23.50
2022-12-11T18:26:47.918Z,24.90
2022-12-11T18:30:14.076Z,20.63
2022-12-11T18:33:40.251Z,23.13
2022-12-11T18:37:03.462Z,20.67
2022-12-11T18:40:26.634Z,21.80
2022-12-11T18:43:49.673Z,22.80
2022-12-11T18:47:12.829Z,20.83
2022-12-11T18:50:37.439Z,23.40
2022-12-11T18:54:00.721Z,27.03
2022-12-11T18:57:23.954Z,23.17
2022-12-11T19:00:47.291Z,22.20
2022-12-11T19:04:11.135Z,27.50
2022-12-11T19:07:35.737Z,23.27
2022-12-11T19:11:01.318Z,20.87
2022-12-11T19:14:24.604Z,22.83
2022-12-11T19:17:47.759Z,23.83
2022-12-11T19:21:12.630Z,23.50
2022-12-11T19:24:37.698Z,22.63
2022-12-11T19:28:00.722Z,21.80
2022-12-11T19:31:24.434Z,22.50
2022-12-11T19:34:47.399Z,21.33
2022-12-11T19:38:10.878Z,21.67
2022-12-11T19:41:35.214Z,19.90
2022-12-11T19:44:58.197Z,25.30
2022-12-11T19:48:21.144Z,25.83
2022-12-11T19:51:44.882Z,21.20
2022-12-11T19:55:21.535Z,89.63
2022-12-11T19:58:45.993Z,32.77
2022-12-11T20:02:09.167Z,26.53
2022-12-11T20:05:32.187Z,28.13
2022-12-11T20:08:55.215Z,28.77
2022-12-11T20:12:18.350Z,27.43
2022-12-11T20:15:42.693Z,29.87
2022-12-11T20:19:05.667Z,33.00
2022-12-11T20:22:28.624Z,27.27
2022-12-11T20:25:57.407Z,40.27
2022-12-11T20:29:22.049Z,30.40
2022-12-11T20:32:46.517Z,36.90
2022-12-11T20:36:10.843Z,30.07
2022-12-11T20:39:33.825Z,27.47
2022-12-11T20:42:57.033Z,24.20
2022-12-11T20:46:21.213Z,25.10
2022-12-11T20:49:45.602Z,26.33
2022-12-11T20:53:08.596Z,28.10
2022-12-11T20:56:32.646Z,27.47
2022-12-11T20:59:55.588Z,29.20
2022-12-11T21:03:18.625Z,22.70
2022-12-11T21:06:43.299Z,29.27
2022-12-11T21:10:07.085Z,26.87
2022-12-11T21:13:31.074Z,31.17
2022-12-11T21:16:55.289Z,24.47
2022-12-11T21:20:18.983Z,31.90
2022-12-11T21:23:43.583Z,28.40
2022-12-11T21:27:06.582Z,26.47
2022-12-11T21:30:29.553Z,31.23
2022-12-11T21:33:52.542Z,25.90
2022-12-11T21:37:15.582Z,23.63
2022-12-11T21:40:39.948Z,28.20
2022-12-11T21:45:14.446Z,25.80
2022-12-11T21:47:45.892Z,29.60
2022-12-11T21:51:10.287Z,32.07
2022-12-11T21:54:33.270Z,25.80
2022-12-11T21:57:57.746Z,27.20
2022-12-11T22:01:22.641Z,36.80
2022-12-11T22:04:47.371Z,33.13
2022-12-11T22:08:10.386Z,32.90
2022-12-11T22:11:35.440Z,32.70
2022-12-11T22:14:59.869Z,30.10
2022-12-11T22:18:26.908Z,30.10
2022-12-11T22:21:49.854Z,28.73
2022-12-11T22:25:13.104Z,28.57
2022-12-11T22:28:36.404Z,34.23
2022-12-11T22:32:02.397Z,41.53
2022-12-11T22:35:27.252Z,32.40
2022-12-11T22:38:50.843Z,39.10
2022-12-11T22:42:13.844Z,34.53
2022-12-11T22:45:40.724Z,33.73
2022-12-11T22:49:05.206Z,32.87
2022-12-11T22:52:28.132Z,32.47
2022-12-11T22:55:51.112Z,35.70
2022-12-11T22:59:14.068Z,30.33
2022-12-11T23:02:37.711Z,33.97
2022-12-11T23:06:05.492Z,35.40
2022-12-11T23:09:28.535Z,37.90
2022-12-11T23:12:51.565Z,38.97
2022-12-11T23:16:15.777Z,36.63
2022-12-11T23:19:38.741Z,35.23
2022-12-11T23:23:03.441Z,40.07
2022-12-11T23:26:28.141Z,36.67
2022-12-11T23:29:51.101Z,40.07
2022-12-11T23:33:14.142Z,39.30
2022-12-11T23:36:37.107Z,48.17
2022-12-11T23:40:01.407Z,46.90
2022-12-11T23:43:24.403Z,42.83
2022-12-11T23:46:47.365Z,37.73
2022-12-11T23:50:10.942Z,36.53
2022-12-11T23:53:33.986Z,38.53
2022-12-11T23:56:58.343Z,33.07
